createdAt,value
2023-03-24T00:01:06.937Z,18.64
2023-03-24T00:03:33.631Z,18.63
2023-03-24T00:06:03.164Z,18.62
2023-03-24T00:08:31.782Z,18.62
2023-03-24T00:11:01.635Z,18.62
2023-03-24T00:13:29.341Z,18.63
2023-03-24T00:15:56.631Z,18.62
2023-03-24T00:18:25.889Z,18.60
2023-03-24T00:20:58.673Z,18.59
2023-03-24T00:23:27.878Z,18.61
2023-03-24T00:26:04.952Z,18.57
2023-03-24T00:28:33.315Z,18.58
2023-03-24T00:31:02.191Z,18.56
2023-03-24T00:33:34.869Z,18.56
2023-03-24T00:36:07.011Z,18.55
2023-03-24T00:38:34.804Z,18.55
2023-03-24T00:41:02.368Z,18.54
2023-03-24T00:43:29.656Z,18.52
2023-03-24T00:46:05.974Z,18.49
2023-03-24T00:48:33.002Z,18.51
2023-03-24T00:51:02.937Z,18.50
2023-03-24T00:53:29.729Z,18.52
2023-03-24T00:55:58.405Z,18.50
2023-03-24T00:58:25.459Z,18.52
2023-03-24T01:00:56.959Z,18.51
2023-03-24T01:03:27.693Z,18.52
2023-03-24T01:05:57.786Z,18.53
2023-03-24T01:08:25.648Z,18.52
2023-03-24T01:10:54.282Z,18.52
2023-03-24T01:13:23.687Z,18.51
2023-03-24T01:15:51.202Z,18.50
2023-03-24T01:18:18.450Z,18.49
2023-03-24T01:20:47.141Z,18.50
2023-03-24T01:23:16.386Z,18.48
2023-03-24T01:25:45.903Z,18.49
2023-03-24T01:28:13.452Z,18.49
2023-03-24T01:30:40.512Z,18.49
2023-03-24T01:33:07.942Z,18.48
2023-03-24T01:35:35.348Z,18.48
2023-03-24T01:38:06.454Z,18.46
2023-03-24T01:40:34.774Z,18.45
2023-03-24T01:43:01.412Z,18.44
2023-03-24T01:45:42.562Z,18.42
2023-03-24T01:48:18.808Z,18.43
2023-03-24T01:51:04.594Z,18.43
2023-03-24T01:53:34.018Z,18.43
2023-03-24T01:56:02.765Z,18.42
2023-03-24T01:58:32.384Z,18.42
2023-03-24T02:00:59.156Z,18.41
2023-03-24T02:03:29.994Z,18.40
2023-03-24T02:05:57.698Z,18.39
2023-03-24T02:08:48.218Z,18.37
2023-03-24T02:11:14.877Z,18.36
2023-03-24T02:13:41.482Z,18.35
2023-03-24T02:16:26.018Z,18.35
2023-03-24T02:19:14.803Z,18.32
2023-03-24T02:21:59.699Z,18.34
2023-03-24T02:25:04.394Z,18.33
2023-03-24T02:27:52.329Z,18.32
2023-03-24T02:31:19.745Z,18.32
2023-03-24T02:33:52.290Z,18.35
2023-03-24T02:36:21.749Z,18.34
2023-03-24T02:39:25.810Z,18.31
2023-03-24T02:42:31.200Z,18.33
2023-03-24T02:45:35.271Z,18.33
2023-03-24T02:48:20.616Z,18.34
2023-03-24T02:51:08.507Z,18.31
2023-03-24T02:54:23.135Z,18.31
2023-03-24T02:56:58.392Z,18.31
2023-03-24T02:59:44.925Z,18.30
2023-03-24T03:02:20.290Z,18.31
2023-03-24T03:04:52.699Z,18.30
2023-03-24T03:07:25.053Z,18.30
2023-03-24T03:09:59.958Z,18.29
2023-03-24T03:12:31.681Z,18.29
2023-03-24T03:15:03.614Z,18.28
2023-03-24T03:17:35.647Z,18.28
2023-03-24T03:20:11.249Z,18.27
2023-03-24T03:22:45.339Z,18.27
2023-03-24T03:25:16.639Z,18.26
2023-03-24T03:27:46.957Z,18.25
2023-03-24T03:30:22.330Z,18.24
2023-03-24T03:32:55.427Z,18.23
2023-03-24T03:35:51.017Z,18.23
2023-03-24T03:38:26.325Z,18.22
2023-03-24T03:41:00.218Z,18.21
2023-03-24T03:43:28.425Z,18.21
2023-03-24T03:45:55.709Z,18.20
2023-03-24T03:48:26.373Z,18.20
2023-03-24T03:51:06.275Z,18.18
2023-03-24T03:53:51.456Z,18.17
2023-03-24T03:56:20.648Z,18.17
2023-03-24T03:58:47.294Z,18.17
2023-03-24T04:01:18.664Z,18.16
2023-03-24T04:04:06.549Z,18.14
2023-03-24T04:06:36.100Z,18.14
2023-03-24T04:09:28.615Z,18.14
2023-03-24T04:12:02.699Z,18.13
2023-03-24T04:14:46.039Z,18.13
2023-03-24T04:17:46.507Z,18.11
2023-03-24T04:20:24.244Z,18.12
2023-03-24T04:23:26.400Z,18.11
2023-03-24T04:26:34.336Z,18.12
2023-03-24T04:29:09.968Z,18.13
2023-03-24T04:31:49.171Z,18.11
2023-03-24T04:34:22.056Z,18.11
2023-03-24T04:36:54.576Z,18.12
2023-03-24T04:39:28.147Z,18.10
2023-03-24T04:41:57.840Z,18.10
2023-03-24T04:44:26.498Z,18.10
2023-03-24T04:46:57.688Z,18.10
2023-03-24T04:49:25.426Z,18.11
2023-03-24T04:51:52.513Z,18.10
2023-03-24T04:54:20.491Z,18.08
2023-03-24T04:56:50.912Z,18.08
2023-03-24T04:59:18.495Z,18.08
2023-03-24T05:01:51.724Z,18.08
2023-03-24T05:04:28.157Z,18.07
2023-03-24T05:06:55.100Z,18.08
2023-03-24T05:09:23.663Z,18.07
2023-03-24T05:11:50.718Z,18.05
2023-03-24T05:14:17.249Z,18.05
2023-03-24T05:16:43.888Z,18.05
2023-03-24T05:19:11.082Z,18.03
2023-03-24T05:21:37.733Z,18.01
2023-03-24T05:24:04.674Z,18.00
2023-03-24T05:26:33.125Z,18.00
2023-03-24T05:29:00.347Z,17.98
2023-03-24T05:31:27.196Z,17.98
2023-03-24T05:33:53.963Z,17.98
2023-03-24T05:36:20.514Z,17.97
2023-03-24T05:38:47.130Z,17.97
2023-03-24T05:41:13.729Z,17.95
2023-03-24T05:43:40.286Z,17.95
2023-03-24T05:46:07.131Z,17.94
2023-03-24T05:48:33.695Z,17.93
2023-03-24T05:51:00.274Z,17.95
2023-03-24T05:53:26.813Z,17.94
2023-03-24T05:55:53.686Z,17.94
2023-03-24T05:58:21.464Z,17.94
2023-03-24T06:00:48.389Z,17.94
2023-03-24T06:03:17.272Z,17.94
2023-03-24T06:05:45.775Z,17.95
2023-03-24T06:08:12.699Z,17.94
2023-03-24T06:10:40.661Z,17.94
2023-03-24T06:13:09.126Z,17.96
2023-03-24T06:15:36.255Z,17.95
2023-03-24T06:18:05.389Z,17.94
2023-03-24T06:20:32.293Z,17.93
2023-03-24T06:22:59.906Z,17.95
2023-03-24T06:25:28.576Z,17.96
2023-03-24T06:27:55.288Z,17.95
2023-03-24T06:30:21.824Z,17.96
2023-03-24T06:32:48.713Z,17.96
2023-03-24T06:35:17.057Z,17.97
2023-03-24T06:37:44.716Z,17.98
2023-03-24T06:40:15.987Z,17.98
2023-03-24T06:42:42.648Z,17.99
2023-03-24T06:45:10.033Z,18.00
2023-03-24T06:47:37.273Z,18.01
2023-03-24T06:50:05.594Z,18.01
2023-03-24T06:52:32.224Z,18.00
2023-03-24T06:54:58.952Z,18.02
2023-03-24T06:57:26.023Z,18.05
2023-03-24T06:59:53.346Z,18.06
2023-03-24T07:02:19.926Z,18.08
2023-03-24T07:04:46.505Z,18.09
2023-03-24T07:07:52.800Z,18.10
2023-03-24T07:09:59.814Z,18.11
2023-03-24T07:12:26.406Z,18.13
2023-03-24T07:14:52.936Z,18.14
2023-03-24T07:17:19.410Z,18.15
2023-03-24T07:19:45.990Z,18.16
2023-03-24T07:22:12.515Z,18.16
2023-03-24T07:24:39.028Z,18.18
2023-03-24T07:27:06.745Z,18.20
2023-03-24T07:29:33.247Z,18.21
2023-03-24T07:32:00.998Z,18.22
2023-03-24T07:34:28.608Z,18.24
2023-03-24T07:36:56.081Z,18.25
2023-03-24T07:39:22.629Z,18.29
2023-03-24T07:41:49.184Z,18.30
2023-03-24T07:44:15.904Z,18.30
2023-03-24T07:46:42.558Z,18.32
2023-03-24T07:49:18.975Z,18.32
2023-03-24T07:51:46.540Z,18.35
2023-03-24T07:54:13.272Z,18.36
2023-03-24T07:56:39.825Z,18.36
2023-03-24T07:59:06.518Z,18.38
2023-03-24T08:01:33.118Z,18.39
2023-03-24T08:03:59.989Z,18.41
2023-03-24T08:06:26.789Z,18.41
2023-03-24T08:08:53.303Z,18.42
2023-03-24T08:11:19.811Z,18.43
2023-03-24T08:13:46.401Z,18.45
2023-03-24T08:16:12.986Z,18.47
2023-03-24T08:18:39.581Z,18.48
2023-03-24T08:21:06.582Z,18.50
2023-03-24T08:23:33.336Z,18.53
2023-03-24T08:25:59.866Z,18.55
2023-03-24T08:28:26.425Z,18.58
2023-03-24T08:30:53.106Z,18.61
2023-03-24T08:33:19.698Z,18.64
2023-03-24T08:35:46.820Z,18.68
2023-03-24T08:38:18.116Z,18.71
2023-03-24T08:40:45.485Z,18.76
2023-03-24T08:43:15.314Z,18.80
2023-03-24T08:45:41.871Z,18.83
2023-03-24T08:48:09.117Z,18.85
2023-03-24T08:50:39.230Z,18.89
2023-03-24T08:53:06.170Z,18.92
2023-03-24T08:55:32.754Z,18.95
2023-03-24T08:57:59.747Z,18.98
2023-03-24T09:00:29.071Z,18.99
2023-03-24T09:02:56.582Z,19.01
2023-03-24T09:05:40.998Z,19.02
2023-03-24T09:08:12.412Z,19.04
2023-03-24T09:10:39.770Z,19.03
2023-03-24T09:13:06.368Z,19.04
2023-03-24T09:15:33.740Z,19.05
2023-03-24T09:18:00.900Z,19.07
2023-03-24T09:20:27.556Z,19.09
2023-03-24T09:22:54.195Z,19.11
2023-03-24T09:25:21.514Z,19.12
2023-03-24T09:27:48.397Z,19.13
2023-03-24T09:30:17.524Z,19.16
2023-03-24T09:32:45.470Z,19.16
2023-03-24T09:35:12.078Z,19.21
2023-03-24T09:37:39.364Z,19.25
2023-03-24T09:40:07.805Z,19.30
2023-03-24T09:42:38.662Z,19.35
2023-03-24T09:45:13.533Z,19.41
2023-03-24T09:47:51.211Z,19.46
2023-03-24T09:50:22.820Z,19.53
2023-03-24T09:52:54.780Z,19.59
2023-03-24T09:55:25.388Z,19.64
2023-03-24T09:57:53.779Z,19.67
2023-03-24T10:00:30.528Z,19.69
2023-03-24T10:03:01.865Z,19.72
2023-03-24T10:05:47.367Z,19.75
2023-03-24T10:08:33.577Z,19.78
2023-03-24T10:11:11.306Z,19.81
2023-03-24T10:14:04.365Z,19.81
2023-03-24T10:16:38.987Z,19.84
2023-03-24T10:19:17.521Z,19.86
2023-03-24T10:22:13.989Z,19.86
2023-03-24T10:25:06.529Z,19.84
2023-03-24T10:27:45.293Z,19.86
2023-03-24T10:30:17.692Z,19.86
2023-03-24T10:32:45.349Z,19.85
2023-03-24T10:35:37.297Z,19.85
2023-03-24T10:38:19.829Z,19.86
2023-03-24T10:40:47.953Z,19.89
2023-03-24T10:43:17.299Z,19.91
2023-03-24T10:45:47.490Z,19.93
2023-03-24T10:48:33.150Z,19.93
2023-03-24T10:50:59.981Z,19.96
2023-03-24T10:53:27.341Z,19.93
2023-03-24T10:55:54.001Z,19.93
2023-03-24T10:58:39.752Z,19.90
2023-03-24T11:01:23.529Z,19.88
2023-03-24T11:03:50.930Z,19.89
2023-03-24T11:06:20.690Z,19.88
2023-03-24T11:08:47.531Z,19.87
2023-03-24T11:11:31.654Z,19.86
2023-03-24T11:14:04.544Z,19.86
2023-03-24T11:16:36.677Z,19.86
2023-03-24T11:19:23.316Z,19.84
2023-03-24T11:21:52.220Z,19.84
2023-03-24T11:24:20.650Z,19.86
2023-03-24T11:27:03.217Z,19.85
2023-03-24T11:29:38.513Z,19.85
2023-03-24T11:32:14.223Z,19.85
2023-03-24T11:34:48.895Z,19.87
2023-03-24T11:37:22.210Z,19.85
2023-03-24T11:40:14.585Z,19.85
2023-03-24T11:42:45.425Z,19.86
2023-03-24T11:45:35.834Z,19.84
2023-03-24T11:48:11.330Z,19.85
2023-03-24T11:50:39.303Z,19.85
2023-03-24T11:53:14.739Z,19.84
2023-03-24T11:55:49.521Z,19.84
2023-03-24T11:58:44.154Z,19.84
2023-03-24T12:01:28.533Z,19.84
2023-03-24T12:04:13.031Z,19.86
2023-03-24T12:06:58.753Z,19.88
2023-03-24T12:09:32.502Z,19.91
2023-03-24T12:12:14.001Z,19.90
2023-03-24T12:15:28.721Z,19.97
2023-03-24T12:18:20.204Z,19.98
2023-03-24T12:20:53.948Z,19.97
2023-03-24T12:23:32.933Z,20.01
2023-03-24T12:26:32.997Z,20.03
2023-03-24T12:29:15.108Z,20.06
2023-03-24T12:32:03.382Z,20.06
2023-03-24T12:34:42.472Z,20.05
2023-03-24T12:37:42.850Z,20.04
2023-03-24T12:40:13.004Z,20.07
2023-03-24T12:42:42.018Z,20.08
2023-03-24T12:45:20.667Z,20.09
2023-03-24T12:48:05.351Z,20.15
2023-03-24T12:50:58.979Z,20.19
2023-03-24T12:53:45.811Z,20.20
2023-03-24T12:56:19.118Z,20.20
2023-03-24T12:58:50.340Z,20.24
2023-03-24T13:01:23.551Z,20.26
2023-03-24T13:04:01.056Z,20.28
2023-03-24T13:06:36.346Z,20.31
2023-03-24T13:09:33.337Z,20.31
2023-03-24T13:12:22.641Z,20.32
2023-03-24T13:15:06.998Z,20.32
2023-03-24T13:17:39.188Z,20.32
2023-03-24T13:20:12.592Z,20.32
2023-03-24T13:22:39.954Z,20.31
2023-03-24T13:25:25.100Z,20.30
2023-03-24T13:27:57.475Z,20.30
2023-03-24T13:30:32.485Z,20.29
2023-03-24T13:33:16.935Z,20.27
2023-03-24T13:36:17.267Z,20.27
2023-03-24T13:38:51.590Z,20.28
2023-03-24T13:41:23.985Z,20.28
2023-03-24T13:43:57.639Z,20.27
2023-03-24T13:46:24.419Z,20.27
2023-03-24T13:48:54.409Z,20.29
2023-03-24T13:51:32.780Z,20.28
2023-03-24T13:54:07.034Z,20.28
2023-03-24T13:56:42.536Z,20.30
2023-03-24T13:59:25.459Z,20.28
2023-03-24T14:02:17.628Z,20.27
2023-03-24T14:04:45.778Z,20.29
2023-03-24T14:07:49.980Z,20.29
2023-03-24T14:10:16.583Z,20.29
2023-03-24T14:13:01.798Z,20.29
2023-03-24T14:15:32.825Z,20.31
2023-03-24T14:18:23.481Z,20.29
2023-03-24T14:20:56.350Z,20.31
2023-03-24T14:23:22.970Z,20.30
2023-03-24T14:25:55.600Z,20.29
2023-03-24T14:28:41.586Z,20.29
2023-03-24T14:31:16.032Z,20.29
2023-03-24T14:34:02.138Z,20.28
2023-03-24T14:36:39.579Z,20.28
2023-03-24T14:39:27.525Z,20.26
2023-03-24T14:41:55.889Z,20.27
2023-03-24T14:44:51.920Z,20.25
2023-03-24T14:47:21.452Z,20.25
2023-03-24T14:49:50.668Z,20.25
2023-03-24T14:52:24.925Z,20.24
2023-03-24T14:55:05.903Z,20.23
2023-03-24T14:57:40.022Z,20.25
2023-03-24T15:00:24.952Z,20.24
2023-03-24T15:03:24.094Z,20.24
2023-03-24T15:05:50.993Z,20.25
2023-03-24T15:08:23.521Z,20.24
2023-03-24T15:11:05.212Z,20.24
2023-03-24T15:13:37.012Z,20.24
2023-03-24T15:16:07.081Z,20.24
2023-03-24T15:18:34.776Z,20.24
2023-03-24T15:21:01.318Z,20.23
2023-03-24T15:23:28.447Z,20.23
2023-03-24T15:25:56.364Z,20.20
2023-03-24T15:28:28.303Z,20.20
2023-03-24T15:30:56.586Z,20.20
2023-03-24T15:33:23.615Z,20.19
2023-03-24T15:35:56.839Z,20.18
2023-03-24T15:38:31.976Z,20.18
2023-03-24T15:41:05.348Z,20.17
2023-03-24T15:43:32.038Z,20.15
2023-03-24T15:46:11.934Z,20.14
2023-03-24T15:48:39.579Z,20.12
2023-03-24T15:51:09.229Z,20.08
2023-03-24T15:53:49.015Z,20.03
2023-03-24T15:56:17.950Z,19.99
2023-03-24T15:58:57.516Z,19.96
2023-03-24T16:01:35.821Z,19.93
2023-03-24T16:04:06.010Z,19.92
2023-03-24T16:06:35.492Z,19.90
2023-03-24T16:09:06.737Z,19.88
2023-03-24T16:11:33.287Z,19.86
2023-03-24T16:14:18.344Z,19.85
2023-03-24T16:16:44.935Z,19.82
2023-03-24T16:19:12.174Z,19.80
2023-03-24T16:21:39.024Z,19.79
2023-03-24T16:24:05.802Z,19.76
2023-03-24T16:26:33.295Z,19.75
2023-03-24T16:29:14.470Z,19.71
2023-03-24T16:31:41.051Z,19.69
2023-03-24T16:34:07.585Z,19.66
2023-03-24T16:36:34.234Z,19.63
2023-03-24T16:39:05.022Z,19.63
2023-03-24T16:41:31.583Z,19.62
2023-03-24T16:43:58.127Z,19.66
2023-03-24T16:46:27.653Z,19.75
2023-03-24T16:48:54.857Z,19.84
2023-03-24T16:51:21.936Z,19.92
2023-03-24T16:53:48.890Z,20.00
2023-03-24T16:56:18.872Z,20.08
2023-03-24T16:58:48.739Z,20.14
2023-03-24T17:01:26.417Z,20.21
2023-03-24T17:03:58.514Z,20.28
2023-03-24T17:06:26.977Z,20.34
2023-03-24T17:08:53.791Z,20.40
2023-03-24T17:11:34.016Z,20.44
2023-03-24T17:14:04.879Z,20.51
2023-03-24T17:16:36.358Z,20.53
2023-03-24T17:19:06.417Z,20.55
2023-03-24T17:21:37.189Z,20.55
2023-03-24T17:24:03.932Z,20.54
2023-03-24T17:26:31.962Z,20.53
2023-03-24T17:28:58.780Z,20.52
2023-03-24T17:31:25.336Z,20.50
2023-03-24T17:33:51.908Z,20.49
2023-03-24T17:36:18.444Z,20.47
2023-03-24T17:38:47.974Z,20.44
2023-03-24T17:41:14.876Z,20.40
2023-03-24T17:43:41.403Z,20.37
2023-03-24T17:46:08.361Z,20.34
2023-03-24T17:48:37.639Z,20.30
2023-03-24T17:51:05.072Z,20.24
2023-03-24T17:53:33.534Z,20.20
2023-03-24T17:56:07.135Z,20.16
2023-03-24T17:58:35.797Z,20.13
2023-03-24T18:01:07.888Z,20.10
2023-03-24T18:03:37.577Z,20.07
2023-03-24T18:06:12.567Z,20.05
2023-03-24T18:08:39.625Z,20.05
2023-03-24T18:11:09.158Z,20.06
2023-03-24T18:13:36.149Z,20.10
2023-03-24T18:16:17.724Z,20.14
2023-03-24T18:18:47.152Z,20.21
2023-03-24T18:21:13.792Z,20.27
2023-03-24T18:23:40.316Z,20.32
2023-03-24T18:26:08.669Z,20.37
2023-03-24T18:28:37.534Z,20.41
2023-03-24T18:31:16.449Z,20.45
2023-03-24T18:33:45.885Z,20.47
2023-03-24T18:36:16.491Z,20.50
2023-03-24T18:38:43.601Z,20.50
2023-03-24T18:41:12.712Z,20.49
2023-03-24T18:43:41.006Z,20.49
2023-03-24T18:46:11.403Z,20.47
2023-03-24T18:48:39.652Z,20.45
2023-03-24T18:51:06.416Z,20.41
2023-03-24T18:53:35.805Z,20.36
2023-03-24T18:56:04.133Z,20.32
2023-03-24T18:58:30.993Z,20.27
2023-03-24T19:00:58.721Z,20.21
2023-03-24T19:03:27.225Z,20.16
2023-03-24T19:05:53.977Z,20.12
2023-03-24T19:08:21.927Z,20.08
2023-03-24T19:10:49.163Z,20.06
2023-03-24T19:13:16.974Z,20.02
2023-03-24T19:15:47.746Z,19.97
2023-03-24T19:18:15.416Z,19.95
2023-03-24T19:20:42.132Z,19.92
2023-03-24T19:23:09.100Z,19.89
2023-03-24T19:25:35.672Z,19.86
2023-03-24T19:28:02.253Z,19.84
2023-03-24T19:30:29.455Z,19.81
2023-03-24T19:32:56.738Z,19.81
2023-03-24T19:35:24.005Z,19.78
2023-03-24T19:37:50.630Z,19.78
2023-03-24T19:40:17.398Z,19.75
2023-03-24T19:42:45.154Z,19.75
2023-03-24T19:45:13.878Z,19.74
2023-03-24T19:47:40.498Z,19.71
2023-03-24T19:50:08.127Z,19.71
2023-03-24T19:52:35.440Z,19.69
2023-03-24T19:55:02.488Z,19.66
2023-03-24T19:57:30.537Z,19.63
2023-03-24T19:59:57.515Z,19.62
2023-03-24T20:02:24.890Z,19.60
2023-03-24T20:04:55.047Z,19.60
2023-03-24T20:07:23.050Z,19.54
2023-03-24T20:09:49.648Z,19.50
2023-03-24T20:12:16.452Z,19.45
2023-03-24T20:14:43.021Z,19.40
2023-03-24T20:17:17.507Z,19.37
2023-03-24T20:19:44.557Z,19.34
2023-03-24T20:22:11.087Z,19.30
2023-03-24T20:24:40.676Z,19.27
2023-03-24T20:27:07.716Z,19.21
2023-03-24T20:29:34.631Z,19.19
2023-03-24T20:32:01.201Z,19.14
2023-03-24T20:34:27.745Z,19.10
2023-03-24T20:36:54.357Z,19.04
2023-03-24T20:39:20.941Z,18.99
2023-03-24T20:41:47.445Z,18.93
2023-03-24T20:44:14.030Z,18.89
2023-03-24T20:46:40.623Z,18.86
2023-03-24T20:49:08.655Z,18.81
2023-03-24T20:51:35.231Z,18.78
2023-03-24T20:54:01.912Z,18.74
2023-03-24T20:56:28.580Z,18.71
2023-03-24T20:58:55.139Z,18.68
2023-03-24T21:01:22.111Z,18.66
2023-03-24T21:03:50.405Z,18.64
2023-03-24T21:06:17.514Z,18.61
2023-03-24T21:08:45.321Z,18.57
2023-03-24T21:11:12.769Z,18.56
2023-03-24T21:13:39.914Z,18.55
2023-03-24T21:16:11.532Z,18.53
2023-03-24T21:18:38.888Z,18.52
2023-03-24T21:21:06.182Z,18.49
2023-03-24T21:23:34.256Z,18.48
2023-03-24T21:26:08.598Z,18.47
2023-03-24T21:28:35.118Z,18.46
2023-03-24T21:31:20.009Z,18.43
2023-03-24T21:33:46.608Z,18.45
2023-03-24T21:36:13.563Z,18.44
2023-03-24T21:38:40.501Z,18.43
2023-03-24T21:41:07.887Z,18.42
2023-03-24T21:43:34.956Z,18.41
2023-03-24T21:46:03.884Z,18.40
2023-03-24T21:48:32.837Z,18.40
2023-03-24T21:51:00.324Z,18.38
2023-03-24T21:53:26.845Z,18.37
2023-03-24T21:55:56.543Z,18.37
2023-03-24T21:58:23.438Z,18.35
2023-03-24T22:00:50.927Z,18.34
2023-03-24T22:03:17.930Z,18.34
2023-03-24T22:05:44.557Z,18.31
2023-03-24T22:08:12.177Z,18.32
2023-03-24T22:10:42.496Z,18.30
2023-03-24T22:13:10.321Z,18.30
2023-03-24T22:15:37.724Z,18.29
2023-03-24T22:18:04.427Z,18.26
2023-03-24T22:20:32.006Z,18.28
2023-03-24T22:22:59.974Z,18.28
2023-03-24T22:25:26.497Z,18.28
2023-03-24T22:27:56.014Z,18.28
2023-03-24T22:30:23.257Z,18.29
2023-03-24T22:32:49.932Z,18.28
2023-03-24T22:35:16.766Z,18.28
2023-03-24T22:37:43.340Z,18.27
2023-03-24T22:40:09.943Z,18.26
2023-03-24T22:42:36.585Z,18.29
2023-03-24T22:45:03.187Z,18.30
2023-03-24T22:47:29.764Z,18.30
2023-03-24T22:49:56.344Z,18.29
2023-03-24T22:52:22.983Z,18.28
2023-03-24T22:54:49.576Z,18.29
2023-03-24T22:57:17.654Z,18.29
2023-03-24T22:59:44.562Z,18.28
2023-03-24T23:02:11.078Z,18.29
2023-03-24T23:04:40.371Z,18.27
2023-03-24T23:07:07.648Z,18.29
2023-03-24T23:09:34.307Z,18.25
2023-03-24T23:12:00.881Z,18.27
2023-03-24T23:14:27.711Z,18.26
2023-03-24T23:16:56.374Z,18.25
2023-03-24T23:19:23.305Z,18.24
2023-03-24T23:21:50.037Z,18.23
2023-03-24T23:24:17.019Z,18.23
2023-03-24T23:26:43.609Z,18.23
2023-03-24T23:29:10.211Z,18.23
2023-03-24T23:31:36.978Z,18.22
2023-03-24T23:34:07.416Z,18.22
2023-03-24T23:36:34.226Z,18.22
2023-03-24T23:39:01.105Z,18.20
2023-03-24T23:41:27.721Z,18.21
2023-03-24T23:43:54.309Z,18.20
2023-03-24T23:46:22.039Z,18.19
2023-03-24T23:48:48.631Z,18.18
2023-03-24T23:51:15.674Z,18.17
2023-03-24T23:53:42.400Z,18.17
2023-03-24T23:56:11.224Z,18.16
2023-03-24T23:58:40.125Z,18.16
